createdAt,value
2017-07-02T00:00:20.283Z,1006.31
2017-07-02T00:01:01.174Z,1006.28
2017-07-02T00:01:42.065Z,1006.33
2017-07-02T00:02:22.951Z,1006.3
2017-07-02T00:03:03.831Z,1006.28
2017-07-02T00:03:44.721Z,1006.3
2017-07-02T00:04:25.599Z,1006.3
2017-07-02T00:05:06.485Z,1006.3
2017-07-02T00:05:47.374Z,1006.3
2017-07-02T00:06:28.269Z,1006.3
2017-07-02T00:07:09.158Z,1006.27
2017-07-02T00:07:50.062Z,1006.33
2017-07-02T00:08:30.948Z,1006.35
2017-07-02T00:09:11.836Z,1006.35
2017-07-02T00:09:52.725Z,1006.34
2017-07-02T00:10:33.621Z,1006.33
2017-07-02T00:11:14.515Z,1006.34
2017-07-02T00:11:55.433Z,1006.4
2017-07-02T00:12:36.319Z,1006.42
2017-07-02T00:13:17.212Z,1006.4
2017-07-02T00:13:58.106Z,1006.38
2017-07-02T00:14:38.989Z,1006.37
2017-07-02T00:15:19.898Z,1006.35
2017-07-02T00:16:00.768Z,1006.36
2017-07-02T00:16:41.662Z,1006.37
2017-07-02T00:17:22.554Z,1006.37
2017-07-02T00:18:03.443Z,1006.35
2017-07-02T00:18:44.342Z,1006.38
2017-07-02T00:19:25.219Z,1006.34
2017-07-02T00:20:06.109Z,1006.37
2017-07-02T00:20:46.992Z,1006.36
2017-07-02T00:21:27.870Z,1006.39
2017-07-02T00:22:08.754Z,1006.42
2017-07-02T00:22:49.646Z,1006.41
2017-07-02T00:23:30.539Z,1006.45
2017-07-02T00:24:11.434Z,1006.46
2017-07-02T00:24:52.355Z,1006.47
2017-07-02T00:25:33.213Z,1006.47
2017-07-02T00:26:14.100Z,1006.49
2017-07-02T00:26:54.985Z,1006.47
2017-07-02T00:27:35.877Z,1006.48
2017-07-02T00:28:16.769Z,1006.47
2017-07-02T00:28:57.655Z,1006.46
2017-07-02T00:29:38.549Z,1006.49
2017-07-02T00:30:19.443Z,1006.52
2017-07-02T00:31:00.331Z,1006.5
2017-07-02T00:31:41.224Z,1006.49
2017-07-02T00:32:22.111Z,1006.5
2017-07-02T00:33:02.991Z,1006.48
2017-07-02T00:33:43.894Z,1006.52
2017-07-02T00:34:24.787Z,1006.49
2017-07-02T00:35:05.672Z,1006.5
2017-07-02T00:35:46.562Z,1006.5
2017-07-02T00:36:27.450Z,1006.53
2017-07-02T00:37:08.333Z,1006.51
2017-07-02T00:37:49.220Z,1006.47
2017-07-02T00:38:30.111Z,1006.49
2017-07-02T00:39:10.999Z,1006.45
2017-07-02T00:39:51.877Z,1006.5
2017-07-02T00:40:32.760Z,1006.48
2017-07-02T00:41:13.657Z,1006.42
2017-07-02T00:41:54.545Z,1006.41
2017-07-02T00:42:35.451Z,1006.43
2017-07-02T00:43:16.348Z,1006.43
2017-07-02T00:43:57.234Z,1006.44
2017-07-02T00:44:38.128Z,1006.45
2017-07-02T00:45:19.020Z,1006.46
2017-07-02T00:45:59.904Z,1006.44
2017-07-02T00:46:40.807Z,1006.43
2017-07-02T00:47:21.692Z,1006.43
2017-07-02T00:48:02.583Z,1006.46
2017-07-02T00:48:43.470Z,1006.44
2017-07-02T00:49:24.356Z,1006.43
2017-07-02T00:50:05.247Z,1006.47
2017-07-02T00:50:46.133Z,1006.46
2017-07-02T00:51:27.039Z,1006.42
2017-07-02T00:52:07.922Z,1006.48
2017-07-02T00:52:48.804Z,1006.45
2017-07-02T00:53:29.703Z,1006.43
2017-07-02T00:54:10.602Z,1006.5
2017-07-02T00:54:51.487Z,1006.49
2017-07-02T00:55:32.378Z,1006.5
2017-07-02T00:56:13.265Z,1006.48
2017-07-02T00:56:54.148Z,1006.5
2017-07-02T00:57:35.031Z,1006.49
2017-07-02T00:58:15.923Z,1006.47
2017-07-02T00:58:56.810Z,1006.51
2017-07-02T00:59:37.705Z,1006.52
2017-07-02T01:00:18.602Z,1006.48
2017-07-02T01:00:59.485Z,1006.5
2017-07-02T01:01:40.366Z,1006.49
2017-07-02T01:02:21.257Z,1006.48
2017-07-02T01:03:02.160Z,1006.51
2017-07-02T01:03:43.042Z,1006.5
2017-07-02T01:04:23.930Z,1006.53
2017-07-02T01:05:04.825Z,1006.5
2017-07-02T01:05:45.715Z,1006.5
2017-07-02T01:06:26.599Z,1006.51
2017-07-02T01:07:07.492Z,1006.5
2017-07-02T01:07:48.379Z,1006.53
2017-07-02T01:08:29.265Z,1006.54
2017-07-02T01:09:10.158Z,1006.55
2017-07-02T01:09:51.049Z,1006.56
2017-07-02T01:10:31.925Z,1006.56
2017-07-02T01:11:12.816Z,1006.56
2017-07-02T01:11:53.711Z,1006.58
2017-07-02T01:12:34.591Z,1006.57
2017-07-02T01:13:15.490Z,1006.59
2017-07-02T01:13:56.384Z,1006.56
2017-07-02T01:14:37.279Z,1006.62
2017-07-02T01:15:18.170Z,1006.58
2017-07-02T01:15:59.060Z,1006.6
2017-07-02T01:16:39.942Z,1006.59
2017-07-02T01:17:20.835Z,1006.59
2017-07-02T01:18:01.730Z,1006.59
2017-07-02T01:18:42.607Z,1006.6
2017-07-02T01:19:23.491Z,1006.63
2017-07-02T01:20:04.392Z,1006.59
2017-07-02T01:20:45.281Z,1006.59
2017-07-02T01:21:26.166Z,1006.6
2017-07-02T01:22:07.055Z,1006.59
2017-07-02T01:22:47.946Z,1006.63
2017-07-02T01:23:28.875Z,1006.59
2017-07-02T01:24:09.756Z,1006.59
2017-07-02T01:24:50.634Z,1006.63
2017-07-02T01:25:31.523Z,1006.67
2017-07-02T01:26:12.431Z,1006.59
2017-07-02T01:26:53.320Z,1006.61
2017-07-02T01:27:34.214Z,1006.61
2017-07-02T01:28:15.111Z,1006.63
2017-07-02T01:28:56.002Z,1006.61
2017-07-02T01:29:36.895Z,1006.63
2017-07-02T01:30:17.785Z,1006.62
2017-07-02T01:30:58.675Z,1006.62
2017-07-02T01:31:39.550Z,1006.62
2017-07-02T01:32:20.456Z,1006.62
2017-07-02T01:33:01.348Z,1006.63
2017-07-02T01:33:42.233Z,1006.65
2017-07-02T01:34:23.127Z,1006.67
2017-07-02T01:35:04.016Z,1006.63
2017-07-02T01:35:44.909Z,1006.64
2017-07-02T01:36:25.787Z,1006.6
2017-07-02T01:37:06.672Z,1006.65
2017-07-02T01:37:47.576Z,1006.61
2017-07-02T01:38:28.475Z,1006.62
2017-07-02T01:39:09.358Z,1006.69
2017-07-02T01:39:50.238Z,1006.65
2017-07-02T01:40:31.105Z,1006.66
2017-07-02T01:41:11.996Z,1006.72
2017-07-02T01:41:52.889Z,1006.66
2017-07-02T01:42:33.774Z,1006.7
2017-07-02T01:43:14.660Z,1006.74
2017-07-02T01:43:55.559Z,1006.71
2017-07-02T01:45:34.015Z,1006.75
2017-07-02T01:46:14.906Z,1006.71
2017-07-02T01:46:55.811Z,1006.66
2017-07-02T01:47:36.688Z,1006.66
2017-07-02T01:48:17.573Z,1006.69
2017-07-02T01:48:58.470Z,1006.67
2017-07-02T01:49:39.359Z,1006.69
2017-07-02T01:50:20.260Z,1006.69
2017-07-02T01:51:01.150Z,1006.69
2017-07-02T01:51:42.039Z,1006.65
2017-07-02T01:52:22.930Z,1006.65
2017-07-02T01:53:03.822Z,1006.67
2017-07-02T01:53:44.716Z,1006.64
2017-07-02T01:54:25.605Z,1006.68
2017-07-02T01:55:06.499Z,1006.62
2017-07-02T01:55:47.384Z,1006.65
2017-07-02T01:56:28.277Z,1006.66
2017-07-02T01:57:09.164Z,1006.64
2017-07-02T01:57:50.053Z,1006.62
2017-07-02T01:58:30.949Z,1006.63
2017-07-02T01:59:11.849Z,1006.66
2017-07-02T01:59:52.732Z,1006.59
2017-07-02T02:00:33.629Z,1006.6
2017-07-02T02:01:14.529Z,1006.63
2017-07-02T02:01:55.427Z,1006.64
2017-07-02T02:02:36.309Z,1006.67
2017-07-02T02:03:17.205Z,1006.64
2017-07-02T02:03:58.103Z,1006.68
2017-07-02T02:04:39.028Z,1006.67
2017-07-02T02:05:19.885Z,1006.67
2017-07-02T02:06:00.773Z,1006.65
2017-07-02T02:06:41.668Z,1006.69
2017-07-02T02:07:22.548Z,1006.67
2017-07-02T02:08:03.426Z,1006.67
2017-07-02T02:08:44.320Z,1006.71
2017-07-02T02:09:25.210Z,1006.66
2017-07-02T02:10:06.102Z,1006.73
2017-07-02T02:10:46.991Z,1006.64
2017-07-02T02:11:27.870Z,1006.73
2017-07-02T02:12:08.750Z,1006.69
2017-07-02T02:12:49.643Z,1006.76
2017-07-02T02:13:30.540Z,1006.73
2017-07-02T02:14:11.426Z,1006.7
2017-07-02T02:14:52.308Z,1006.75
2017-07-02T02:15:33.207Z,1006.71
2017-07-02T02:16:14.109Z,1006.71
2017-07-02T02:16:54.993Z,1006.71
2017-07-02T02:17:35.884Z,1006.7
2017-07-02T02:18:16.776Z,1006.71
2017-07-02T02:18:57.666Z,1006.73
2017-07-02T02:19:38.573Z,1006.73
2017-07-02T02:20:19.462Z,1006.69
2017-07-02T02:21:00.356Z,1006.7
2017-07-02T02:21:41.265Z,1006.7
2017-07-02T02:22:22.141Z,1006.7
2017-07-02T02:23:03.034Z,1006.68
2017-07-02T02:23:43.910Z,1006.71
2017-07-02T02:24:24.807Z,1006.67
2017-07-02T02:25:05.694Z,1006.72
2017-07-02T02:25:46.587Z,1006.69
2017-07-02T02:26:27.473Z,1006.68
2017-07-02T02:27:08.356Z,1006.68
2017-07-02T02:27:49.253Z,1006.75
2017-07-02T02:28:30.123Z,1006.74
2017-07-02T02:29:11.012Z,1006.79
2017-07-02T02:29:51.896Z,1006.79
2017-07-02T02:30:32.796Z,1006.79
2017-07-02T02:31:13.697Z,1006.77
2017-07-02T02:31:54.578Z,1006.8
2017-07-02T02:32:35.473Z,1006.84
2017-07-02T02:33:16.359Z,1006.78
2017-07-02T02:33:57.233Z,1006.82
2017-07-02T02:34:38.137Z,1006.8
2017-07-02T02:35:19.028Z,1006.81
2017-07-02T02:35:59.921Z,1006.86
2017-07-02T02:36:40.819Z,1006.85
2017-07-02T02:37:21.711Z,1006.84
2017-07-02T02:38:02.600Z,1006.83
2017-07-02T02:38:43.497Z,1006.87
2017-07-02T02:39:24.382Z,1006.79
2017-07-02T02:40:05.271Z,1006.83
2017-07-02T02:40:46.159Z,1006.82
2017-07-02T02:41:27.088Z,1006.87
2017-07-02T02:42:07.935Z,1006.85
2017-07-02T02:42:48.813Z,1006.88
2017-07-02T02:43:29.704Z,1006.83
2017-07-02T02:44:10.591Z,1006.84
2017-07-02T02:44:51.486Z,1006.85
2017-07-02T02:45:32.375Z,1006.87
2017-07-02T02:46:13.263Z,1006.86
2017-07-02T02:46:54.164Z,1006.88
2017-07-02T02:47:35.054Z,1006.88
2017-07-02T02:48:15.935Z,1006.89
2017-07-02T02:48:56.817Z,1006.87
2017-07-02T02:49:37.703Z,1006.93
2017-07-02T02:50:18.591Z,1006.89
2017-07-02T02:50:59.503Z,1006.93
2017-07-02T02:52:32.739Z,1006.96
2017-07-02T02:53:13.646Z,1006.95
2017-07-02T02:53:54.536Z,1006.97
2017-07-02T02:54:35.421Z,1006.98
2017-07-02T02:55:16.297Z,1006.99
2017-07-02T02:55:57.188Z,1006.99
2017-07-02T02:56:38.070Z,1006.97
2017-07-02T02:57:18.959Z,1006.97
2017-07-02T02:57:59.847Z,1007.01
2017-07-02T02:58:40.738Z,1007.04
2017-07-02T02:59:21.633Z,1007.03
2017-07-02T03:00:02.527Z,1007.02
2017-07-02T03:00:43.399Z,1007.02
2017-07-02T03:01:24.296Z,1007.04
2017-07-02T03:02:05.186Z,1007.08
2017-07-02T03:02:46.073Z,1007.09
2017-07-02T03:03:26.964Z,1007
2017-07-02T03:04:07.848Z,1007.03
2017-07-02T03:04:48.734Z,1007.05
2017-07-02T03:05:29.627Z,1007.07
2017-07-02T03:06:10.514Z,1007.07
2017-07-02T03:06:51.407Z,1007.06
2017-07-02T03:07:32.288Z,1007.08
2017-07-02T03:08:13.178Z,1007.15
2017-07-02T03:08:54.064Z,1007.12
2017-07-02T03:09:34.952Z,1007.16
2017-07-02T03:10:15.848Z,1007.06
2017-07-02T03:10:56.747Z,1007.17
2017-07-02T03:11:37.628Z,1007.17
2017-07-02T03:12:18.521Z,1007.2
2017-07-02T03:12:59.404Z,1007.25
2017-07-02T03:13:40.294Z,1007.25
2017-07-02T03:14:21.184Z,1007.29
2017-07-02T03:15:02.089Z,1007.29
2017-07-02T03:15:42.973Z,1007.27
2017-07-02T03:16:23.842Z,1007.26
2017-07-02T03:17:04.740Z,1007.26
2017-07-02T03:17:45.627Z,1007.28
2017-07-02T03:18:26.524Z,1007.34
2017-07-02T03:19:07.416Z,1007.31
2017-07-02T03:19:48.302Z,1007.28
2017-07-02T03:20:29.194Z,1007.36
2017-07-02T03:21:10.069Z,1007.35
2017-07-02T03:21:50.966Z,1007.35
2017-07-02T03:22:31.845Z,1007.34
2017-07-02T03:23:12.734Z,1007.38
2017-07-02T03:23:53.618Z,1007.37
2017-07-02T03:24:34.509Z,1007.37
2017-07-02T03:25:15.395Z,1007.43
2017-07-02T03:25:56.274Z,1007.42
2017-07-02T03:26:37.167Z,1007.47
2017-07-02T03:27:18.062Z,1007.48
2017-07-02T03:27:58.932Z,1007.45
2017-07-02T03:28:39.835Z,1007.46
2017-07-02T03:29:20.775Z,1007.53
2017-07-02T03:30:01.668Z,1007.57
2017-07-02T03:30:42.556Z,1007.53
2017-07-02T03:31:23.437Z,1007.55
2017-07-02T03:32:04.344Z,1007.56
2017-07-02T03:32:45.235Z,1007.56
2017-07-02T03:33:26.113Z,1007.59
2017-07-02T03:34:06.997Z,1007.53
2017-07-02T03:34:47.887Z,1007.59
2017-07-02T03:35:28.771Z,1007.64
2017-07-02T03:36:09.654Z,1007.63
2017-07-02T03:36:50.575Z,1007.62
2017-07-02T03:37:31.441Z,1007.66
2017-07-02T03:38:12.318Z,1007.69
2017-07-02T03:38:53.205Z,1007.61
2017-07-02T03:39:34.088Z,1007.71
2017-07-02T03:40:14.976Z,1007.72
2017-07-02T03:40:55.857Z,1007.71
2017-07-02T03:41:36.748Z,1007.78
2017-07-02T03:42:17.641Z,1007.76
2017-07-02T03:42:58.515Z,1007.78
2017-07-02T03:43:39.398Z,1007.86
2017-07-02T03:44:20.313Z,1007.79
2017-07-02T03:45:01.194Z,1007.84
2017-07-02T03:45:42.080Z,1007.85
2017-07-02T03:46:22.970Z,1007.83
2017-07-02T03:47:03.860Z,1007.84
2017-07-02T03:47:44.750Z,1007.88
2017-07-02T03:48:25.640Z,1007.89
2017-07-02T03:49:06.532Z,1007.89
2017-07-02T03:49:47.414Z,1007.86
2017-07-02T03:50:28.306Z,1007.86
2017-07-02T03:51:09.190Z,1007.94
2017-07-02T03:51:50.069Z,1007.86
2017-07-02T03:52:30.950Z,1007.87
2017-07-02T03:53:11.838Z,1007.88
2017-07-02T03:53:52.722Z,1007.93
2017-07-02T03:54:33.607Z,1007.89
2017-07-02T03:55:14.502Z,1007.91
2017-07-02T03:55:55.398Z,1007.91
2017-07-02T03:56:36.291Z,1008
2017-07-02T03:57:17.183Z,1007.96
2017-07-02T03:57:58.078Z,1007.99
2017-07-02T03:58:38.961Z,1007.98
2017-07-02T03:59:19.847Z,1007.98
2017-07-02T04:00:00.732Z,1008
2017-07-02T04:00:41.621Z,1007.97
2017-07-02T04:01:22.508Z,1008.02
2017-07-02T04:02:03.394Z,1008.02
2017-07-02T04:02:44.295Z,1008.03
2017-07-02T04:03:25.196Z,1007.99
2017-07-02T04:04:06.092Z,1007.98
2017-07-02T04:04:46.980Z,1008
2017-07-02T04:05:27.872Z,1008.03
2017-07-02T04:06:08.768Z,1008.08
2017-07-02T04:06:49.646Z,1008.09
2017-07-02T04:07:30.522Z,1008.08
2017-07-02T04:08:11.433Z,1008.11
2017-07-02T04:08:52.317Z,1008.11
2017-07-02T04:09:33.207Z,1008.11
2017-07-02T04:10:14.091Z,1008.16
2017-07-02T04:10:54.976Z,1008.19
2017-07-02T04:11:35.862Z,1008.09
2017-07-02T04:12:16.744Z,1008.2
2017-07-02T04:12:57.637Z,1008.18
2017-07-02T04:13:38.522Z,1008.14
2017-07-02T04:14:19.406Z,1008.22
2017-07-02T04:15:00.294Z,1008.23
2017-07-02T04:15:41.199Z,1008.19
2017-07-02T04:16:22.073Z,1008.2
2017-07-02T04:17:02.960Z,1008.26
2017-07-02T04:17:43.857Z,1008.3
2017-07-02T04:18:24.734Z,1008.27
2017-07-02T04:19:05.622Z,1008.3
2017-07-02T04:19:46.511Z,1008.27
2017-07-02T04:20:27.402Z,1008.33
2017-07-02T04:21:08.318Z,1008.34
2017-07-02T04:21:49.235Z,1008.3
2017-07-02T04:22:30.109Z,1008.31
2017-07-02T04:23:11.001Z,1008.25
2017-07-02T04:23:51.890Z,1008.27
2017-07-02T04:24:32.781Z,1008.31
2017-07-02T04:25:13.672Z,1008.37
2017-07-02T04:25:54.578Z,1008.34
2017-07-02T04:26:35.461Z,1008.38
2017-07-02T04:27:16.350Z,1008.34
2017-07-02T04:27:57.256Z,1008.38
2017-07-02T04:28:38.148Z,1008.38
2017-07-02T04:29:19.038Z,1008.43
2017-07-02T04:29:59.931Z,1008.42
2017-07-02T04:30:40.805Z,1008.43
2017-07-02T04:31:21.719Z,1008.45
2017-07-02T04:32:02.601Z,1008.44
2017-07-02T04:32:43.487Z,1008.48
2017-07-02T04:33:24.374Z,1008.45
2017-07-02T04:34:05.267Z,1008.48
2017-07-02T04:34:46.154Z,1008.48
2017-07-02T04:35:27.036Z,1008.52
2017-07-02T04:36:07.924Z,1008.49
2017-07-02T04:36:48.819Z,1008.51
2017-07-02T04:37:29.711Z,1008.48
2017-07-02T04:38:10.608Z,1008.57
2017-07-02T04:38:51.525Z,1008.48
2017-07-02T04:39:32.414Z,1008.53
2017-07-02T04:40:13.301Z,1008.53
2017-07-02T04:40:54.189Z,1008.54
2017-07-02T04:41:35.076Z,1008.54
2017-07-02T04:42:15.972Z,1008.56
2017-07-02T04:42:56.854Z,1008.54
2017-07-02T04:43:37.736Z,1008.56
2017-07-02T04:44:18.624Z,1008.59
2017-07-02T04:44:59.515Z,1008.57
2017-07-02T04:45:40.397Z,1008.57
2017-07-02T04:46:21.285Z,1008.57
2017-07-02T04:47:02.174Z,1008.61
2017-07-02T04:47:43.064Z,1008.59
2017-07-02T04:48:23.944Z,1008.65
2017-07-02T04:49:04.835Z,1008.56
2017-07-02T04:49:45.724Z,1008.64
2017-07-02T04:50:26.611Z,1008.59
2017-07-02T04:51:07.494Z,1008.64
2017-07-02T04:51:48.388Z,1008.64
2017-07-02T04:52:29.276Z,1008.64
2017-07-02T04:53:10.155Z,1008.7
2017-07-02T04:53:51.040Z,1008.63
2017-07-02T04:54:31.940Z,1008.67
2017-07-02T04:55:12.823Z,1008.66
2017-07-02T04:55:53.746Z,1008.74
2017-07-02T04:56:34.635Z,1008.71
2017-07-02T04:57:15.522Z,1008.71
2017-07-02T04:57:56.411Z,1008.75
2017-07-02T04:58:37.308Z,1008.75
2017-07-02T04:59:18.191Z,1008.73
2017-07-02T04:59:59.093Z,1008.71
2017-07-02T05:00:39.973Z,1008.77
2017-07-02T05:01:20.857Z,1008.77
2017-07-02T05:02:01.747Z,1008.84
2017-07-02T05:02:42.639Z,1008.79
2017-07-02T05:03:23.521Z,1008.79
2017-07-02T05:04:04.423Z,1008.72
2017-07-02T05:04:45.307Z,1008.78
2017-07-02T05:05:26.185Z,1008.82
2017-07-02T05:06:07.070Z,1008.83
2017-07-02T05:06:47.958Z,1008.8
2017-07-02T05:07:28.871Z,1008.83
2017-07-02T05:08:09.733Z,1008.9
2017-07-02T05:08:50.634Z,1008.86
2017-07-02T05:09:31.520Z,1008.86
2017-07-02T05:10:12.391Z,1008.89
2017-07-02T05:10:53.278Z,1008.91
2017-07-02T05:11:34.165Z,1008.95
2017-07-02T05:12:15.057Z,1008.91
2017-07-02T05:12:55.948Z,1008.88
2017-07-02T05:13:36.838Z,1008.92
2017-07-02T05:14:17.733Z,1008.87
2017-07-02T05:14:58.609Z,1008.96
2017-07-02T05:15:39.490Z,1008.96
2017-07-02T05:16:20.383Z,1008.96
2017-07-02T05:17:01.276Z,1008.9
2017-07-02T05:17:42.144Z,1009.03
2017-07-02T05:18:23.018Z,1008.95
2017-07-02T05:19:03.942Z,1008.99
2017-07-02T05:19:44.818Z,1009.01
2017-07-02T05:20:25.706Z,1008.95
2017-07-02T05:21:06.600Z,1008.97
2017-07-02T05:21:47.494Z,1009.06
2017-07-02T05:22:28.363Z,1009.08
2017-07-02T05:23:09.244Z,1009.09
2017-07-02T05:23:50.137Z,1009.1
2017-07-02T05:24:31.026Z,1009.06
2017-07-02T05:25:11.897Z,1009.02
2017-07-02T05:25:52.775Z,1009.09
2017-07-02T05:26:33.666Z,1009.08
2017-07-02T05:27:14.561Z,1009.12
2017-07-02T05:27:55.423Z,1009.04
2017-07-02T05:28:36.311Z,1009.1
2017-07-02T05:29:17.204Z,1009.12
2017-07-02T05:29:58.093Z,1009.1
2017-07-02T05:30:38.976Z,1009.05
2017-07-02T05:31:19.875Z,1009.07
2017-07-02T05:32:00.768Z,1009.12
2017-07-02T05:32:41.644Z,1009.07
2017-07-02T05:33:22.533Z,1009.18
2017-07-02T05:34:03.428Z,1009.1
2017-07-02T05:34:44.302Z,1009.09
2017-07-02T05:35:25.197Z,1009.14
2017-07-02T05:36:06.087Z,1009.13
2017-07-02T05:36:46.984Z,1009.13
2017-07-02T05:37:27.850Z,1009.13
2017-07-02T05:38:08.766Z,1009.16
2017-07-02T05:38:49.651Z,1009.17
2017-07-02T05:39:30.523Z,1009.17
2017-07-02T05:40:11.412Z,1009.15
2017-07-02T05:40:52.299Z,1009.18
2017-07-02T05:41:33.193Z,1009.22
2017-07-02T05:42:14.080Z,1009.26
2017-07-02T05:42:54.970Z,1009.2
2017-07-02T05:43:35.862Z,1009.18
2017-07-02T05:44:16.739Z,1009.25
2017-07-02T05:44:57.631Z,1009.23
2017-07-02T05:45:38.523Z,1009.25
2017-07-02T05:46:19.409Z,1009.23
2017-07-02T05:47:00.318Z,1009.26
2017-07-02T05:47:41.210Z,1009.23
2017-07-02T05:48:22.141Z,1009.25
2017-07-02T05:49:02.989Z,1009.27
2017-07-02T05:49:43.872Z,1009.25
2017-07-02T05:50:24.768Z,1009.28
2017-07-02T05:51:05.659Z,1009.25
2017-07-02T05:51:46.545Z,1009.29
2017-07-02T05:52:27.434Z,1009.31
2017-07-02T05:53:08.333Z,1009.28
2017-07-02T05:53:49.224Z,1009.33
2017-07-02T05:54:30.109Z,1009.32
2017-07-02T05:55:10.994Z,1009.32
2017-07-02T05:55:51.889Z,1009.33
2017-07-02T05:56:32.775Z,1009.38
2017-07-02T05:57:13.654Z,1009.37
2017-07-02T05:57:54.542Z,1009.35
2017-07-02T05:58:35.434Z,1009.35
2017-07-02T05:59:16.310Z,1009.38
2017-07-02T05:59:57.200Z,1009.4
2017-07-02T06:00:38.095Z,1009.37
2017-07-02T06:01:18.978Z,1009.38
2017-07-02T06:01:59.867Z,1009.41
2017-07-02T06:02:40.766Z,1009.4
2017-07-02T06:03:21.653Z,1009.42
2017-07-02T06:04:02.543Z,1009.4
2017-07-02T06:04:43.437Z,1009.45
2017-07-02T06:05:24.329Z,1009.43
2017-07-02T06:06:05.220Z,1009.48
2017-07-02T06:06:46.108Z,1009.45
2017-07-02T06:07:26.994Z,1009.5
2017-07-02T06:08:07.873Z,1009.51
2017-07-02T06:08:48.754Z,1009.49
2017-07-02T06:09:29.653Z,1009.52
2017-07-02T06:10:10.547Z,1009.49
2017-07-02T06:10:51.427Z,1009.53
2017-07-02T06:11:32.320Z,1009.49
2017-07-02T06:12:13.219Z,1009.57
2017-07-02T06:12:54.100Z,1009.57
2017-07-02T06:13:34.999Z,1009.59
2017-07-02T06:14:15.890Z,1009.6
2017-07-02T06:14:56.774Z,1009.57
2017-07-02T06:15:37.665Z,1009.6
2017-07-02T06:16:18.563Z,1009.55
2017-07-02T06:16:59.451Z,1009.6
2017-07-02T06:17:40.335Z,1009.66
2017-07-02T06:18:21.246Z,1009.59
2017-07-02T06:19:02.110Z,1009.62
2017-07-02T06:19:43.001Z,1009.6
2017-07-02T06:20:23.886Z,1009.66
2017-07-02T06:21:04.767Z,1009.73
2017-07-02T06:21:45.648Z,1009.68
2017-07-02T06:22:26.536Z,1009.72
2017-07-02T06:23:07.431Z,1009.7
2017-07-02T06:23:48.317Z,1009.73
2017-07-02T06:24:29.210Z,1009.72
2017-07-02T06:25:10.099Z,1009.7
2017-07-02T06:25:50.976Z,1009.72
2017-07-02T06:26:31.848Z,1009.7
2017-07-02T06:27:12.709Z,1009.79
2017-07-02T06:27:53.649Z,1009.77
2017-07-02T06:29:27.010Z,1009.76
2017-07-02T06:30:07.892Z,1009.82
2017-07-02T06:30:48.770Z,1009.82
2017-07-02T06:31:29.629Z,1009.81
2017-07-02T06:32:10.519Z,1009.94
2017-07-02T06:32:51.420Z,1009.87
2017-07-02T06:33:32.306Z,1009.87
2017-07-02T06:34:13.179Z,1009.91
2017-07-02T06:34:54.057Z,1009.9
2017-07-02T06:35:34.939Z,1009.88
2017-07-02T06:36:15.819Z,1009.93
2017-07-02T06:36:56.691Z,1009.9
2017-07-02T06:37:37.591Z,1009.9
2017-07-02T06:38:18.467Z,1009.89
2017-07-02T06:38:59.335Z,1009.95
2017-07-02T06:39:40.206Z,1009.91
2017-07-02T06:40:21.071Z,1009.96
2017-07-02T06:41:01.978Z,1009.95
2017-07-02T06:41:42.866Z,1009.96
2017-07-02T06:42:23.740Z,1009.96
2017-07-02T06:43:04.606Z,1009.99
2017-07-02T06:43:45.483Z,1009.98
2017-07-02T06:44:26.386Z,1009.99
2017-07-02T06:45:07.282Z,1010.03
2017-07-02T06:45:48.159Z,1010.01
2017-07-02T06:46:29.073Z,1010.06
2017-07-02T06:47:09.998Z,1010.02
2017-07-02T06:47:50.869Z,1010.1
2017-07-02T06:48:31.781Z,1010.08
2017-07-02T06:49:12.665Z,1010.14
2017-07-02T06:49:53.573Z,1010.05
2017-07-02T06:50:34.458Z,1010.06
2017-07-02T06:51:15.321Z,1010.11
2017-07-02T06:51:56.211Z,1010.1
2017-07-02T06:52:37.104Z,1010.11
2017-07-02T06:53:18.023Z,1010.13
2017-07-02T06:53:58.901Z,1010.09
2017-07-02T06:54:39.776Z,1010.1
2017-07-02T06:55:20.661Z,1010.15
2017-07-02T06:56:01.530Z,1010.16
2017-07-02T06:56:42.398Z,1010.15
2017-07-02T06:57:23.279Z,1010.14
2017-07-02T06:58:04.166Z,1010.14
2017-07-02T06:58:45.044Z,1010.15
2017-07-02T06:59:25.921Z,1010.16
2017-07-02T07:00:06.792Z,1010.13
2017-07-02T07:00:47.684Z,1010.14
2017-07-02T07:01:28.568Z,1010.12
2017-07-02T07:02:09.448Z,1010.12
2017-07-02T07:02:50.314Z,1010.12
2017-07-02T07:03:31.196Z,1010.15
2017-07-02T07:04:12.065Z,1010.09
2017-07-02T07:04:52.954Z,1010.11
2017-07-02T07:05:33.829Z,1010.12
2017-07-02T07:06:14.697Z,1010.17
2017-07-02T07:07:53.117Z,1010.19
2017-07-02T07:08:33.975Z,1010.18
2017-07-02T07:09:14.863Z,1010.23
2017-07-02T07:09:55.745Z,1010.19
2017-07-02T07:10:36.614Z,1010.14
2017-07-02T07:11:17.489Z,1010.16
2017-07-02T07:11:58.359Z,1010.16
2017-07-02T07:12:39.230Z,1010.18
2017-07-02T07:13:20.109Z,1010.18
2017-07-02T07:14:00.985Z,1010.16
2017-07-02T07:14:41.859Z,1010.18
2017-07-02T07:15:22.727Z,1010.13
2017-07-02T07:16:03.611Z,1010.22
2017-07-02T07:16:44.481Z,1010.19
2017-07-02T07:17:25.360Z,1010.19
2017-07-02T07:18:06.237Z,1010.19
2017-07-02T07:18:47.113Z,1010.25
2017-07-02T07:19:27.985Z,1010.2
2017-07-02T07:20:08.863Z,1010.2
2017-07-02T07:20:49.746Z,1010.24
2017-07-02T07:21:30.643Z,1010.2
2017-07-02T07:22:11.517Z,1010.22
2017-07-02T07:22:52.408Z,1010.18
2017-07-02T07:23:33.306Z,1010.24
2017-07-02T07:24:14.178Z,1010.25
2017-07-02T07:24:55.067Z,1010.22
2017-07-02T07:25:35.926Z,1010.22
2017-07-02T07:26:16.818Z,1010.21
2017-07-02T07:26:57.693Z,1010.21
2017-07-02T07:27:38.586Z,1010.26
2017-07-02T07:28:19.463Z,1010.29
2017-07-02T07:29:00.353Z,1010.3
2017-07-02T07:29:41.241Z,1010.33
2017-07-02T07:30:22.106Z,1010.21
2017-07-02T07:31:02.985Z,1010.26
2017-07-02T07:31:43.855Z,1010.26
2017-07-02T07:32:24.729Z,1010.24
2017-07-02T07:33:05.619Z,1010.27
2017-07-02T07:33:46.494Z,1010.25
2017-07-02T07:34:27.362Z,1010.25
2017-07-02T07:35:08.246Z,1010.26
2017-07-02T07:35:49.147Z,1010.27
2017-07-02T07:36:30.033Z,1010.27
2017-07-02T07:37:10.937Z,1010.27
2017-07-02T07:37:51.830Z,1010.33
2017-07-02T07:38:32.766Z,1010.2
2017-07-02T07:39:13.608Z,1010.29
2017-07-02T07:39:54.489Z,1010.23
2017-07-02T07:40:35.382Z,1010.16
2017-07-02T07:41:16.276Z,1010.25
2017-07-02T07:41:57.162Z,1010.25
2017-07-02T07:42:38.116Z,1010.24
2017-07-02T07:43:18.997Z,1010.28
2017-07-02T07:43:59.880Z,1010.27
2017-07-02T07:44:40.797Z,1010.31
2017-07-02T07:45:21.675Z,1010.37
2017-07-02T07:46:02.572Z,1010.26
2017-07-02T07:46:43.432Z,1010.28
2017-07-02T07:47:24.295Z,1010.27
2017-07-02T07:48:05.185Z,1010.29
2017-07-02T07:48:46.072Z,1010.28
2017-07-02T07:49:26.986Z,1010.23
2017-07-02T07:50:07.892Z,1010.23
2017-07-02T07:50:48.769Z,1010.26
2017-07-02T07:51:29.639Z,1010.24
2017-07-02T07:52:10.539Z,1010.3
2017-07-02T07:52:51.434Z,1010.29
2017-07-02T07:53:32.329Z,1010.3
2017-07-02T07:54:13.227Z,1010.31
2017-07-02T07:54:54.113Z,1010.18
2017-07-02T07:55:34.995Z,1010.24
2017-07-02T07:56:15.867Z,1010.26
2017-07-02T07:56:56.779Z,1010.22
2017-07-02T07:57:37.690Z,1010.24
2017-07-02T07:58:18.576Z,1010.35
2017-07-02T07:58:59.447Z,1010.23
2017-07-02T07:59:40.321Z,1010.28
2017-07-02T08:01:33.995Z,1010.31
2017-07-02T08:02:14.864Z,1010.31
2017-07-02T08:02:55.781Z,1010.33
2017-07-02T08:03:36.679Z,1010.28
2017-07-02T08:04:17.561Z,1010.29
2017-07-02T08:04:58.454Z,1010.34
2017-07-02T08:05:39.358Z,1010.34
2017-07-02T08:06:20.218Z,1010.29
2017-07-02T08:07:01.099Z,1010.2
2017-07-02T08:07:41.990Z,1010.3
2017-07-02T08:08:22.900Z,1010.31
2017-07-02T08:09:03.768Z,1010.29
2017-07-02T08:09:44.646Z,1010.29
2017-07-02T08:10:25.538Z,1010.33
2017-07-02T08:11:06.426Z,1010.3
2017-07-02T08:11:47.302Z,1010.32
2017-07-02T08:12:28.181Z,1010.34
2017-07-02T08:13:09.068Z,1010.34
2017-07-02T08:13:49.969Z,1010.29
2017-07-02T08:14:30.856Z,1010.42
2017-07-02T08:15:11.742Z,1010.39
2017-07-02T08:15:52.624Z,1010.4
2017-07-02T08:16:33.509Z,1010.43
2017-07-02T08:17:14.405Z,1010.41
2017-07-02T08:17:55.285Z,1010.43
2017-07-02T08:18:36.158Z,1010.43
2017-07-02T08:19:17.033Z,1010.39
2017-07-02T08:19:57.923Z,1010.36
2017-07-02T08:20:38.816Z,1010.42
2017-07-02T08:21:19.707Z,1010.37